Time;durP1;ratioP1;P1;durP2;ratioP2;P2;SDS_P1;SDS_P2;PMS_P1;PMS_P2;Temp;Humidity;BMP_temperature;BMP_pressure;BME280_temperature;BME280_humidity;BME280_pressure;Samples;Min_cycle;Max_cycle;Signal;HPM_P1;HPM_P2
2023/04/19 00:02:13;;;;;;;22.63;18.00;;;;;;;;;;5079924;28;20230;-74
2023/04/19 00:04:43;;;;;;;22.10;17.90;;;;;;;;;;5071244;28;20201;-74
2023/04/19 00:07:11;;;;;;;21.93;17.37;;;;;;;;;;5090770;28;20236;-74
2023/04/19 00:09:38;;;;;;;25.10;18.87;;;;;;;;;;5071571;28;20228;-74
2023/04/19 00:12:06;;;;;;;20.83;17.53;;;;;;;;;;5091835;28;20213;-74
2023/04/19 00:14:33;;;;;;;21.23;17.53;;;;;;;;;;5091193;28;20332;-73
2023/04/19 00:17:00;;;;;;;19.27;15.87;;;;;;;;;;5091498;28;20260;-74
2023/04/19 00:19:28;;;;;;;21.70;17.27;;;;;;;;;;5091745;28;20725;-75
2023/04/19 00:21:55;;;;;;;20.37;16.00;;;;;;;;;;5091743;28;20701;-74
2023/04/19 00:24:22;;;;;;;20.97;16.70;;;;;;;;;;5080004;28;20248;-74
2023/04/19 00:26:49;;;;;;;20.90;16.63;;;;;;;;;;5053741;28;20292;-74
2023/04/19 00:29:17;;;;;;;18.50;15.57;;;;;;;;;;5071016;28;20256;-74
2023/04/19 00:31:44;;;;;;;20.43;16.60;;;;;;;;;;5085372;28;20197;-74
2023/04/19 00:34:11;;;;;;;19.37;16.13;;;;;;;;;;5091446;28;20213;-74
2023/04/19 00:36:39;;;;;;;19.00;16.20;;;;;;;;;;5091424;28;20311;-74
2023/04/19 00:39:06;;;;;;;23.83;17.30;;;;;;;;;;5091363;28;20278;-74
2023/04/19 00:41:33;;;;;;;20.57;15.17;;;;;;;;;;5091535;28;20205;-73
2023/04/19 00:44:01;;;;;;;18.57;15.93;;;;;;;;;;5088069;28;20212;-74
2023/04/19 00:46:28;;;;;;;19.67;15.83;;;;;;;;;;5053836;28;20293;-75
2023/04/19 00:48:55;;;;;;;19.37;15.63;;;;;;;;;;5071147;28;20271;-75
2023/04/19 00:51:23;;;;;;;19.60;16.13;;;;;;;;;;5066342;28;20285;-75
2023/04/19 00:53:50;;;;;;;19.33;16.60;;;;;;;;;;5077489;28;20249;-75
2023/04/19 00:56:18;;;;;;;20.03;16.73;;;;;;;;;;5081042;28;20632;-74
2023/04/19 00:58:46;;;;;;;20.20;16.03;;;;;;;;;;5075833;28;20225;-74
2023/04/19 01:01:14;;;;;;;21.13;16.93;;;;;;;;;;5070772;28;20241;-74
2023/04/19 01:03:41;;;;;;;21.13;16.97;;;;;;;;;;5083771;28;20193;-75
2023/04/19 01:06:09;;;;;;;20.57;17.07;;;;;;;;;;5060654;28;20213;-75
2023/04/19 01:08:36;;;;;;;20.93;16.17;;;;;;;;;;5070389;28;20312;-74
2023/04/19 01:11:07;;;;;;;20.90;17.23;;;;;;;;;;5070450;28;20193;-75
2023/04/19 01:13:34;;;;;;;19.33;16.47;;;;;;;;;;5070783;28;20205;-74
2023/04/19 01:16:01;;;;;;;21.13;16.57;;;;;;;;;;5065815;28;20261;-76
2023/04/19 01:18:34;;;;;;;22.60;16.87;;;;;;;;;;5077132;28;20236;-73
2023/04/19 01:21:01;;;;;;;23.00;16.93;;;;;;;;;;5074875;28;20738;-74
2023/04/19 01:23:28;;;;;;;19.83;16.73;;;;;;;;;;5070169;28;20201;-74
2023/04/19 01:25:56;;;;;;;19.63;16.43;;;;;;;;;;5070810;28;20252;-75
2023/04/19 01:28:23;;;;;;;19.83;16.63;;;;;;;;;;5080536;28;20229;-74
2023/04/19 01:30:52;;;;;;;21.40;16.33;;;;;;;;;;5070368;28;20612;-74
2023/04/19 01:33:20;;;;;;;21.00;16.23;;;;;;;;;;5089070;28;20201;-74
2023/04/19 01:35:47;;;;;;;21.70;16.20;;;;;;;;;;5090644;28;20197;-75
2023/04/19 01:38:17;;;;;;;21.00;16.63;;;;;;;;;;5082753;28;20257;-75
2023/04/19 01:40:44;;;;;;;19.10;16.00;;;;;;;;;;5053184;28;20723;-73
2023/04/19 01:43:12;;;;;;;20.37;16.80;;;;;;;;;;5072785;28;20205;-74
2023/04/19 01:45:40;;;;;;;19.30;15.97;;;;;;;;;;5077251;28;20718;-74
2023/04/19 01:48:07;;;;;;;19.60;16.13;;;;;;;;;;5074933;28;20259;-74
2023/04/19 01:50:34;;;;;;;19.27;16.07;;;;;;;;;;5090894;28;20544;-74
2023/04/19 01:53:02;;;;;;;20.20;16.30;;;;;;;;;;5072724;28;20714;-74
2023/04/19 01:55:29;;;;;;;20.07;16.70;;;;;;;;;;5070725;28;20301;-75
2023/04/19 01:57:56;;;;;;;18.30;16.20;;;;;;;;;;5080678;28;20260;-74
2023/04/19 02:00:23;;;;;;;19.07;16.20;;;;;;;;;;5081394;28;20198;-74
2023/04/19 02:02:50;;;;;;;18.70;15.63;;;;;;;;;;5070032;28;20197;-73
2023/04/19 02:05:18;;;;;;;19.43;15.40;;;;;;;;;;5081326;28;20658;-74
2023/04/19 02:07:45;;;;;;;18.93;15.33;;;;;;;;;;5070277;28;20214;-73
2023/04/19 02:10:13;;;;;;;19.17;14.90;;;;;;;;;;5073116;28;20634;-74
2023/04/19 02:12:41;;;;;;;18.67;14.87;;;;;;;;;;5074794;28;20205;-73
2023/04/19 02:15:09;;;;;;;17.00;14.30;;;;;;;;;;5074156;28;20209;-73
2023/04/19 02:17:37;;;;;;;19.63;14.70;;;;;;;;;;5073625;28;20283;-74
2023/04/19 02:20:07;;;;;;;17.17;15.10;;;;;;;;;;5072996;28;20764;-75
2023/04/19 02:22:34;;;;;;;19.33;15.83;;;;;;;;;;5086939;28;20192;-74
2023/04/19 02:25:03;;;;;;;18.23;14.60;;;;;;;;;;5094049;28;20602;-75
2023/04/19 02:27:30;;;;;;;19.10;15.97;;;;;;;;;;5084889;28;20203;-74
2023/04/19 02:29:57;;;;;;;17.97;15.63;;;;;;;;;;5093764;28;20315;-73
2023/04/19 02:32:25;;;;;;;21.43;16.40;;;;;;;;;;5094167;28;20270;-73
2023/04/19 02:34:52;;;;;;;19.37;15.13;;;;;;;;;;5051029;28;20651;-75
2023/04/19 02:37:20;;;;;;;20.67;16.33;;;;;;;;;;5072914;28;20698;-74
2023/04/19 02:39:50;;;;;;;20.60;15.30;;;;;;;;;;5087505;28;20224;-74
2023/04/19 02:42:18;;;;;;;20.30;15.90;;;;;;;;;;5091029;28;20208;-74
2023/04/19 02:44:45;;;;;;;19.70;16.40;;;;;;;;;;5073069;28;20205;-74
2023/04/19 02:47:12;;;;;;;21.07;17.33;;;;;;;;;;5074557;28;20289;-74
2023/04/19 02:49:40;;;;;;;19.40;16.93;;;;;;;;;;5086000;28;20231;-74
2023/04/19 02:52:07;;;;;;;19.93;16.50;;;;;;;;;;5083019;28;20198;-74
2023/04/19 02:54:35;;;;;;;22.60;17.63;;;;;;;;;;5073302;28;20251;-72
2023/04/19 02:57:02;;;;;;;20.97;16.77;;;;;;;;;;5072975;28;20260;-74
2023/04/19 02:59:29;;;;;;;21.27;17.43;;;;;;;;;;5054542;28;20634;-74
2023/04/19 03:01:56;;;;;;;22.47;17.77;;;;;;;;;;5054481;28;20205;-73
2023/04/19 03:04:24;;;;;;;25.37;19.03;;;;;;;;;;5072739;28;20289;-74
2023/04/19 03:06:51;;;;;;;24.00;18.97;;;;;;;;;;5072854;28;20213;-74
2023/04/19 03:09:19;;;;;;;22.53;17.80;;;;;;;;;;5073300;28;20229;-72
2023/04/19 03:11:46;;;;;;;21.43;18.40;;;;;;;;;;5073071;28;20620;-74
2023/04/19 03:14:13;;;;;;;22.90;17.40;;;;;;;;;;5076788;28;20209;-73
2023/04/19 03:16:41;;;;;;;24.00;18.00;;;;;;;;;;5073005;28;20225;-73
2023/04/19 03:19:08;;;;;;;21.90;17.70;;;;;;;;;;5072518;28;20217;-74
2023/04/19 03:21:35;;;;;;;22.07;18.23;;;;;;;;;;5078408;28;20258;-74
2023/04/19 03:24:03;;;;;;;24.63;19.37;;;;;;;;;;5065514;28;20206;-74
2023/04/19 03:26:30;;;;;;;25.50;20.87;;;;;;;;;;5073073;28;20209;-74
2023/04/19 03:29:00;;;;;;;32.57;25.17;;;;;;;;;;5072349;28;20749;-74
2023/04/19 03:31:27;;;;;;;36.57;28.67;;;;;;;;;;5072428;28;20244;-74
2023/04/19 03:33:54;;;;;;;39.57;28.70;;;;;;;;;;5089042;28;20205;-73
2023/04/19 03:36:25;;;;;;;36.13;27.90;;;;;;;;;;5092412;28;20229;-74
2023/04/19 03:38:52;;;;;;;50.43;40.53;;;;;;;;;;5075483;28;20790;-74
2023/04/19 03:41:20;;;;;;;27.57;23.07;;;;;;;;;;5071679;28;20284;-74
2023/04/19 03:43:47;;;;;;;24.63;18.50;;;;;;;;;;5071837;28;20214;-74
2023/04/19 03:46:15;;;;;;;23.67;18.37;;;;;;;;;;5071770;28;20288;-74
2023/04/19 03:48:42;;;;;;;24.53;18.50;;;;;;;;;;5071532;28;20267;-74
2023/04/19 03:51:09;;;;;;;22.23;18.70;;;;;;;;;;5071032;28;20247;-74
2023/04/19 03:53:40;;;;;;;23.20;19.03;;;;;;;;;;5071159;28;20292;-75
2023/04/19 03:56:07;;;;;;;24.23;19.13;;;;;;;;;;5071708;28;20721;-75
2023/04/19 03:58:34;;;;;;;24.47;19.63;;;;;;;;;;5071807;28;20631;-74
2023/04/19 04:01:02;;;;;;;27.30;19.70;;;;;;;;;;5068860;28;20214;-74
2023/04/19 04:03:29;;;;;;;26.27;19.90;;;;;;;;;;5067701;28;20244;-75
2023/04/19 04:05:56;;;;;;;24.93;19.27;;;;;;;;;;5071337;28;20206;-73
2023/04/19 04:08:24;;;;;;;24.63;19.83;;;;;;;;;;5074355;28;20686;-75
2023/04/19 04:10:51;;;;;;;25.13;19.57;;;;;;;;;;5071178;28;20695;-74
2023/04/19 04:13:18;;;;;;;24.50;19.17;;;;;;;;;;5070947;28;20198;-72
2023/04/19 04:15:45;;;;;;;23.63;18.70;;;;;;;;;;5084683;28;20198;-74
2023/04/19 04:18:13;;;;;;;25.63;19.83;;;;;;;;;;5053329;28;20267;-74
2023/04/19 04:20:40;;;;;;;24.00;19.00;;;;;;;;;;5082422;28;20257;-74
2023/04/19 04:23:07;;;;;;;25.03;19.67;;;;;;;;;;5074078;28;20237;-74
2023/04/19 04:25:36;;;;;;;28.43;19.53;;;;;;;;;;5072446;28;20635;-74
2023/04/19 04:28:03;;;;;;;26.43;20.97;;;;;;;;;;5054349;28;20701;-74
2023/04/19 04:30:33;;;;;;;23.70;19.43;;;;;;;;;;5071743;28;20205;-74
2023/04/19 04:33:01;;;;;;;26.60;19.27;;;;;;;;;;5079118;28;20255;-72
2023/04/19 04:35:29;;;;;;;23.97;19.23;;;;;;;;;;5091985;28;20216;-74
2023/04/19 04:37:56;;;;;;;25.37;20.03;;;;;;;;;;5092274;28;20248;-74
2023/04/19 04:40:28;;;;;;;28.77;20.83;;;;;;;;;;5071396;28;20251;-74
2023/04/19 04:42:56;;;;;;;23.03;18.50;;;;;;;;;;5070726;28;20289;-74
2023/04/19 04:45:24;;;;;;;24.57;18.77;;;;;;;;;;5072141;28;20237;-74
2023/04/19 04:47:52;;;;;;;23.90;18.97;;;;;;;;;;5087820;28;20595;-74
2023/04/19 04:50:19;;;;;;;23.97;18.30;;;;;;;;;;5087679;28;20225;-75
2023/04/19 04:52:46;;;;;;;23.20;18.37;;;;;;;;;;5053566;28;20632;-74
2023/04/19 04:55:14;;;;;;;22.20;17.60;;;;;;;;;;5071883;28;20233;-72
2023/04/19 04:57:42;;;;;;;22.67;17.63;;;;;;;;;;5071101;28;20281;-73
2023/04/19 05:00:11;;;;;;;23.13;18.43;;;;;;;;;;5053409;28;20229;-75
2023/04/19 05:02:38;;;;;;;21.97;17.13;;;;;;;;;;5071222;28;20256;-74
2023/04/19 05:05:10;;;;;;;20.47;17.03;;;;;;;;;;5071461;28;20228;-74
2023/04/19 05:07:40;;;;;;;22.93;17.67;;;;;;;;;;5071161;28;20216;-74
2023/04/19 05:10:08;;;;;;;23.07;17.57;;;;;;;;;;5073363;28;20237;-73
2023/04/19 05:12:36;;;;;;;22.87;17.57;;;;;;;;;;5091391;28;20205;-75
2023/04/19 05:15:03;;;;;;;27.27;20.47;;;;;;;;;;5091307;28;20341;-75
2023/04/19 05:17:31;;;;;;;24.00;18.67;;;;;;;;;;5082666;28;20311;-75
2023/04/19 05:19:58;;;;;;;22.57;17.83;;;;;;;;;;5084717;28;20225;-74
2023/04/19 05:22:26;;;;;;;23.43;17.97;;;;;;;;;;5091419;28;20251;-73
2023/04/19 05:24:53;;;;;;;23.83;17.80;;;;;;;;;;5091266;28;20697;-73
2023/04/19 05:27:21;;;;;;;22.80;18.10;;;;;;;;;;5072295;28;20663;-73
2023/04/19 05:29:52;;;;;;;22.83;18.17;;;;;;;;;;5071093;28;20312;-74
2023/04/19 05:32:20;;;;;;;25.20;18.97;;;;;;;;;;5071255;28;20268;-73
2023/04/19 05:34:47;;;;;;;21.70;17.53;;;;;;;;;;5070474;28;20204;-73
2023/04/19 05:37:14;;;;;;;23.13;17.57;;;;;;;;;;5070747;28;20298;-74
2023/04/19 05:39:43;;;;;;;23.27;17.70;;;;;;;;;;5070577;28;20731;-75
2023/04/19 05:42:11;;;;;;;23.27;17.90;;;;;;;;;;5090187;28;20666;-74
2023/04/19 05:44:38;;;;;;;21.63;16.77;;;;;;;;;;5091061;28;20296;-75
2023/04/19 05:47:05;;;;;;;21.40;17.13;;;;;;;;;;5093189;28;20569;-74
2023/04/19 05:49:32;;;;;;;21.43;16.87;;;;;;;;;;5056886;28;20320;-74
2023/04/19 05:52:06;;;;;;;19.60;16.43;;;;;;;;;;5092111;28;20225;-74
2023/04/19 05:54:34;;;;;;;19.60;16.80;;;;;;;;;;5095558;28;20189;-75
2023/04/19 05:57:02;;;;;;;21.03;16.17;;;;;;;;;;5086484;28;20221;-74
2023/04/19 05:59:30;;;;;;;20.87;16.00;;;;;;;;;;5074810;28;20753;-75
2023/04/19 06:01:57;;;;;;;20.97;17.23;;;;;;;;;;5074959;28;20209;-74
2023/04/19 06:04:26;;;;;;;22.67;16.57;;;;;;;;;;5074187;28;20198;-74
2023/04/19 06:06:53;;;;;;;22.00;17.27;;;;;;;;;;5074468;28;20206;-74
2023/04/19 06:09:21;;;;;;;22.67;16.63;;;;;;;;;;5074512;28;20274;-75
2023/04/19 06:11:48;;;;;;;23.37;17.83;;;;;;;;;;5074676;28;20216;-74
2023/04/19 06:14:17;;;;;;;23.33;17.50;;;;;;;;;;5084747;28;20204;-74
2023/04/19 06:16:45;;;;;;;23.07;17.90;;;;;;;;;;5094699;28;20201;-74
2023/04/19 06:19:13;;;;;;;25.10;17.93;;;;;;;;;;5074604;28;20233;-74
2023/04/19 06:21:40;;;;;;;22.77;18.07;;;;;;;;;;5056594;28;20205;-73
2023/04/19 06:24:07;;;;;;;22.13;17.77;;;;;;;;;;5075728;28;20208;-75
2023/04/19 06:26:35;;;;;;;23.27;17.57;;;;;;;;;;5073992;28;20691;-75
2023/04/19 06:29:02;;;;;;;21.50;16.87;;;;;;;;;;5073659;28;20236;-75
2023/04/19 06:31:29;;;;;;;20.80;17.13;;;;;;;;;;5072168;28;20247;-74
2023/04/19 06:33:57;;;;;;;22.00;17.23;;;;;;;;;;5056964;28;20631;-75
2023/04/19 06:36:24;;;;;;;23.63;17.80;;;;;;;;;;5091470;28;20262;-74
2023/04/19 06:38:51;;;;;;;21.77;18.00;;;;;;;;;;5094123;28;20237;-74
2023/04/19 06:41:18;;;;;;;22.20;17.77;;;;;;;;;;5093791;28;20213;-75
2023/04/19 06:43:46;;;;;;;22.03;16.63;;;;;;;;;;5075182;28;20647;-74
2023/04/19 06:46:14;;;;;;;24.07;17.87;;;;;;;;;;5073887;28;20292;-75
2023/04/19 06:48:44;;;;;;;22.77;18.17;;;;;;;;;;5073328;28;20236;-75
2023/04/19 06:51:11;;;;;;;23.50;17.60;;;;;;;;;;5073295;28;20249;-73
2023/04/19 06:53:38;;;;;;;23.30;17.43;;;;;;;;;;5073341;28;20209;-74
2023/04/19 06:56:06;;;;;;;25.63;18.60;;;;;;;;;;5054298;28;20209;-75
2023/04/19 06:58:33;;;;;;;22.33;17.73;;;;;;;;;;5059630;28;20270;-74
2023/04/19 07:01:03;;;;;;;22.97;18.40;;;;;;;;;;5073955;28;20202;-75
2023/04/19 07:03:31;;;;;;;25.20;18.90;;;;;;;;;;5070887;28;20297;-74
2023/04/19 07:05:58;;;;;;;26.50;19.50;;;;;;;;;;5073122;28;20669;-74
2023/04/19 07:08:26;;;;;;;24.90;18.63;;;;;;;;;;5067374;28;20230;-75
2023/04/19 07:11:01;;;;;;;24.97;18.33;;;;;;;;;;5085873;28;20204;-74
2023/04/19 07:13:28;;;;;;;25.60;18.77;;;;;;;;;;5063449;28;20262;-75
2023/04/19 07:15:56;;;;;;;26.10;19.23;;;;;;;;;;5074190;28;20260;-72
2023/04/19 07:18:23;;;;;;;26.27;20.00;;;;;;;;;;5076514;28;20231;-75
2023/04/19 07:20:51;;;;;;;26.77;19.57;;;;;;;;;;5074011;28;20300;-75
2023/04/19 07:23:18;;;;;;;23.77;18.57;;;;;;;;;;5078260;28;20513;-74
2023/04/19 07:25:45;;;;;;;25.57;18.73;;;;;;;;;;5056620;28;20189;-74
2023/04/19 07:28:14;;;;;;;24.10;18.57;;;;;;;;;;5078290;28;20225;-74
2023/04/19 07:30:44;;;;;;;26.53;19.67;;;;;;;;;;5077487;28;20562;-76
2023/04/19 07:33:12;;;;;;;25.73;19.00;;;;;;;;;;5070814;28;20205;-74
2023/04/19 07:35:39;;;;;;;26.13;18.43;;;;;;;;;;5070735;28;20208;-76
2023/04/19 07:38:07;;;;;;;24.37;17.90;;;;;;;;;;5072679;28;20291;-74
2023/04/19 07:40:34;;;;;;;27.63;19.23;;;;;;;;;;5091220;28;20291;-74
2023/04/19 07:43:01;;;;;;;24.87;18.70;;;;;;;;;;5074529;28;20201;-75
2023/04/19 07:45:30;;;;;;;22.03;17.77;;;;;;;;;;5083768;28;20243;-74
2023/04/19 07:47:57;;;;;;;23.57;18.13;;;;;;;;;;5055830;28;20213;-73
2023/04/19 07:50:25;;;;;;;23.23;16.27;;;;;;;;;;5070064;28;20202;-74
2023/04/19 07:52:53;;;;;;;20.67;15.27;;;;;;;;;;5070219;28;20233;-75
2023/04/19 07:55:20;;;;;;;20.87;16.13;;;;;;;;;;5079193;28;20209;-75
2023/04/19 07:57:49;;;;;;;21.70;16.30;;;;;;;;;;5080676;28;20260;-75
2023/04/19 08:00:17;;;;;;;22.37;16.40;;;;;;;;;;5052916;28;20219;-74
2023/04/19 08:02:47;;;;;;;19.93;16.23;;;;;;;;;;5069983;28;20914;-73
2023/04/19 08:05:16;;;;;;;21.87;16.77;;;;;;;;;;5087633;28;20224;-73
2023/04/19 08:07:44;;;;;;;22.03;16.57;;;;;;;;;;5089136;28;20208;-74
2023/04/19 08:10:11;;;;;;;22.40;16.40;;;;;;;;;;5083253;28;20273;-73
2023/04/19 08:12:40;;;;;;;20.57;16.13;;;;;;;;;;5072684;28;20300;-75
2023/04/19 08:15:23;;;;;;;22.83;16.83;;;;;;;;;;5052534;28;20211;-73
2023/04/19 08:18:10;;;;;;;20.20;15.27;;;;;;;;;;5061033;28;20307;-74
2023/04/19 08:20:37;;;;;;;22.13;16.17;;;;;;;;;;5078359;28;20237;-74
2023/04/19 08:23:06;;;;;;;21.43;15.70;;;;;;;;;;5069963;28;20257;-74
2023/04/19 08:25:47;;;;;;;19.87;15.27;;;;;;;;;;5069740;28;20206;-74
2023/04/19 08:28:14;;;;;;;22.37;16.20;;;;;;;;;;5069418;28;20268;-72
2023/04/19 08:30:41;;;;;;;24.17;15.90;;;;;;;;;;5069691;28;20248;-73
2023/04/19 08:33:11;;;;;;;19.40;14.47;;;;;;;;;;5069534;28;20208;-74
2023/04/19 08:35:40;;;;;;;20.37;14.63;;;;;;;;;;5069627;28;20244;-74
2023/04/19 08:38:08;;;;;;;22.60;15.80;;;;;;;;;;5086307;28;20250;-74
2023/04/19 08:40:35;;;;;;;17.87;14.50;;;;;;;;;;5074608;28;20197;-73
2023/04/19 08:43:06;;;;;;;16.70;13.63;;;;;;;;;;5049665;28;20243;-74
2023/04/19 08:45:34;;;;;;;17.97;14.27;;;;;;;;;;5049485;28;20865;-73
2023/04/19 08:48:02;;;;;;;18.10;14.23;;;;;;;;;;5065391;28;20205;-73
2023/04/19 08:50:30;;;;;;;16.23;12.93;;;;;;;;;;5068882;28;20208;-73
2023/04/19 08:53:11;;;;;;;16.27;13.47;;;;;;;;;;5069974;28;20280;-75
2023/04/19 08:55:42;;;;;;;14.27;12.77;;;;;;;;;;5089691;28;20296;-75
2023/04/19 08:58:31;;;;;;;16.40;13.17;;;;;;;;;;5064547;28;20233;-74
2023/04/19 09:01:19;;;;;;;15.43;13.00;;;;;;;;;;5066576;28;20204;-74
2023/04/19 09:04:01;;;;;;;15.40;12.77;;;;;;;;;;5053061;28;20584;-73
2023/04/19 09:06:48;;;;;;;16.73;13.20;;;;;;;;;;5067935;28;20292;-73
2023/04/19 09:09:25;;;;;;;15.57;12.70;;;;;;;;;;5068708;28;20275;-74
2023/04/19 09:11:59;;;;;;;16.77;13.23;;;;;;;;;;5069236;28;20289;-74
2023/04/19 09:14:27;;;;;;;16.80;13.33;;;;;;;;;;5050778;28;20204;-73
2023/04/19 09:17:11;;;;;;;16.03;12.57;;;;;;;;;;5068722;28;20205;-74
2023/04/19 09:19:49;;;;;;;17.03;12.50;;;;;;;;;;5068665;28;20279;-74
2023/04/19 09:22:16;;;;;;;14.87;12.43;;;;;;;;;;5072760;28;20195;-74
2023/04/19 09:24:44;;;;;;;16.20;13.23;;;;;;;;;;5072864;28;20209;-74
2023/04/19 09:27:36;;;;;;;15.30;11.97;;;;;;;;;;5081841;28;20896;-75
2023/04/19 09:30:05;;;;;;;14.63;12.00;;;;;;;;;;5074265;28;20262;-74
2023/04/19 09:32:47;;;;;;;12.47;10.63;;;;;;;;;;5092666;28;20276;-75
2023/04/19 09:35:15;;;;;;;16.00;13.03;;;;;;;;;;5073187;28;20193;-74
2023/04/19 09:37:42;;;;;;;12.93;11.53;;;;;;;;;;5087618;28;20231;-74
2023/04/19 09:40:22;;;;;;;13.13;11.50;;;;;;;;;;5092704;28;20235;-74
2023/04/19 09:42:49;;;;;;;12.77;10.90;;;;;;;;;;5092800;28;20777;-73
2023/04/19 09:45:19;;;;;;;13.60;10.93;;;;;;;;;;5092614;28;20189;-74
2023/04/19 09:48:04;;;;;;;15.90;12.00;;;;;;;;;;5093270;28;20238;-71
2023/04/19 09:50:32;;;;;;;14.63;11.00;;;;;;;;;;5078967;28;20591;-73
2023/04/19 09:53:08;;;;;;;12.50;10.70;;;;;;;;;;5058676;28;20247;-74
2023/04/19 09:55:36;;;;;;;16.30;12.90;;;;;;;;;;5092663;28;20231;-74
2023/04/19 09:58:24;;;;;;;16.40;13.50;;;;;;;;;;5092833;28;20704;-74
2023/04/19 10:00:58;;;;;;;17.23;14.37;;;;;;;;;;5076245;28;20216;-74
2023/04/19 10:03:41;;;;;;;20.80;15.83;;;;;;;;;;5092707;28;20193;-73
2023/04/19 10:06:08;;;;;;;17.10;14.43;;;;;;;;;;5078275;28;20210;-74
2023/04/19 10:08:54;;;;;;;20.40;14.33;;;;;;;;;;5072712;28;20229;-73
2023/04/19 10:11:24;;;;;;;33.50;19.70;;;;;;;;;;5072203;28;20209;-73
2023/04/19 10:13:53;;;;;;;19.13;15.03;;;;;;;;;;5072110;28;20263;-74
2023/04/19 10:16:20;;;;;;;17.03;14.23;;;;;;;;;;5073840;28;20825;-74
2023/04/19 10:18:51;;;;;;;18.07;13.40;;;;;;;;;;5072536;28;20249;-74
2023/04/19 10:21:19;;;;;;;18.97;14.30;;;;;;;;;;5075987;28;20663;-74
2023/04/19 10:23:47;;;;;;;16.80;12.60;;;;;;;;;;5074899;28;20697;-74
2023/04/19 10:26:14;;;;;;;16.27;12.93;;;;;;;;;;5093259;28;20197;-72
2023/04/19 10:28:41;;;;;;;13.60;12.20;;;;;;;;;;5093765;28;20277;-74
2023/04/19 10:31:15;;;;;;;17.40;13.43;;;;;;;;;;5081517;28;20209;-74
2023/04/19 10:33:42;;;;;;;15.37;12.83;;;;;;;;;;5072670;28;20244;-73
2023/04/19 10:36:10;;;;;;;15.47;11.87;;;;;;;;;;5073331;28;20213;-74
2023/04/19 10:39:02;;;;;;;15.13;11.60;;;;;;;;;;5072687;28;20259;-74
2023/04/19 10:41:49;;;;;;;13.00;11.33;;;;;;;;;;5071981;28;20202;-74
2023/04/19 10:44:16;;;;;;;12.33;11.03;;;;;;;;;;5053794;28;20278;-74
2023/04/19 10:46:44;;;;;;;14.90;11.37;;;;;;;;;;5085824;28;20570;-75
2023/04/19 10:49:12;;;;;;;12.33;11.03;;;;;;;;;;5084686;28;20809;-73
2023/04/19 10:51:43;;;;;;;11.93;10.10;;;;;;;;;;5062131;28;20227;-74
2023/04/19 10:54:14;;;;;;;13.60;10.50;;;;;;;;;;5052882;28;20202;-74
2023/04/19 10:56:58;;;;;;;13.10;10.77;;;;;;;;;;5059473;28;20249;-74
2023/04/19 10:59:31;;;;;;;13.23;10.17;;;;;;;;;;5072649;28;20229;-74
2023/04/19 11:01:59;;;;;;;11.77;10.10;;;;;;;;;;5070201;28;20288;-74
2023/04/19 11:04:30;;;;;;;11.47;9.07;;;;;;;;;;5072376;28;20252;-74
2023/04/19 11:07:02;;;;;;;10.50;9.30;;;;;;;;;;5068767;28;20693;-73
2023/04/19 11:09:33;;;;;;;10.50;9.13;;;;;;;;;;5034872;28;20276;-73
2023/04/19 11:12:01;;;;;;;10.80;9.70;;;;;;;;;;5035141;28;20206;-75
2023/04/19 11:14:33;;;;;;;10.60;8.60;;;;;;;;;;5052698;28;20202;-74
2023/04/19 11:17:02;;;;;;;11.23;8.83;;;;;;;;;;5051425;28;20206;-75
2023/04/19 11:19:30;;;;;;;9.57;8.32;;;;;;;;;;5072131;28;20314;-74
2023/04/19 11:21:58;;;;;;;9.07;8.18;;;;;;;;;;5072032;28;20201;-74
2023/04/19 11:24:26;;;;;;;11.02;8.75;;;;;;;;;;5083709;28;20223;-73
2023/04/19 11:26:55;;;;;;;11.07;9.50;;;;;;;;;;5092687;28;20204;-74
2023/04/19 11:29:23;;;;;;;9.65;7.93;;;;;;;;;;5092123;28;20667;-75
2023/04/19 11:31:50;;;;;;;11.20;9.07;;;;;;;;;;5083384;28;20570;-74
2023/04/19 11:34:21;;;;;;;13.88;11.15;;;;;;;;;;5075491;28;20201;-74
2023/04/19 11:36:51;;;;;;;12.13;10.63;;;;;;;;;;5091559;28;20439;-74
2023/04/19 11:39:20;;;;;;;12.57;10.93;;;;;;;;;;5054893;28;20225;-74
2023/04/19 11:41:47;;;;;;;14.90;10.70;;;;;;;;;;5071234;28;20201;-74
2023/04/19 11:44:19;;;;;;;12.90;10.30;;;;;;;;;;5078272;28;20246;-74
2023/04/19 11:46:59;;;;;;;11.67;10.23;;;;;;;;;;5080846;28;20201;-74
2023/04/19 11:49:31;;;;;;;12.80;11.00;;;;;;;;;;5073378;28;20248;-73
2023/04/19 11:51:59;;;;;;;11.23;9.90;;;;;;;;;;5091017;28;20208;-74
2023/04/19 11:54:29;;;;;;;12.27;10.97;;;;;;;;;;5090898;28;20295;-75
2023/04/19 11:56:59;;;;;;;12.40;10.17;;;;;;;;;;5064254;28;20205;-74
2023/04/19 11:59:27;;;;;;;12.73;10.63;;;;;;;;;;5053584;28;20240;-74
2023/04/19 12:01:57;;;;;;;12.53;10.87;;;;;;;;;;5075566;28;20250;-73
2023/04/19 12:04:26;;;;;;;22.53;14.90;;;;;;;;;;5071595;28;20224;-73
2023/04/19 12:06:59;;;;;;;17.30;12.27;;;;;;;;;;5078302;28;20207;-73
2023/04/19 12:09:27;;;;;;;13.43;10.50;;;;;;;;;;5077680;28;20259;-74
2023/04/19 12:11:54;;;;;;;13.67;11.50;;;;;;;;;;5068908;28;20200;-74
2023/04/19 12:14:22;;;;;;;12.30;9.83;;;;;;;;;;5068460;28;20646;-74
2023/04/19 12:17:14;;;;;;;11.20;9.33;;;;;;;;;;5085249;28;20201;-75
2023/04/19 12:19:45;;;;;;;11.30;9.63;;;;;;;;;;5070037;28;20221;-74
2023/04/19 12:22:13;;;;;;;10.40;8.80;;;;;;;;;;5077986;28;20248;-74
2023/04/19 12:24:40;;;;;;;10.90;9.07;;;;;;;;;;5075613;28;20197;-74
2023/04/19 12:27:07;;;;;;;9.90;8.77;;;;;;;;;;5090458;28;20205;-75
2023/04/19 12:29:37;;;;;;;11.97;8.63;;;;;;;;;;5085103;28;20225;-74
2023/04/19 12:32:04;;;;;;;11.20;9.30;;;;;;;;;;5087613;28;20205;-74
2023/04/19 12:34:32;;;;;;;8.70;7.80;;;;;;;;;;5090602;28;20261;-75
2023/04/19 12:36:59;;;;;;;8.30;7.50;;;;;;;;;;5090702;28;20200;-74
2023/04/19 12:39:27;;;;;;;7.60;6.90;;;;;;;;;;5089996;28;20282;-74
2023/04/19 12:41:55;;;;;;;7.57;6.70;;;;;;;;;;5072414;28;20300;-74
2023/04/19 12:44:22;;;;;;;7.70;7.00;;;;;;;;;;5090494;28;20204;-75
2023/04/19 12:46:50;;;;;;;9.13;7.93;;;;;;;;;;5058192;28;20201;-75
2023/04/19 12:49:18;;;;;;;6.67;6.07;;;;;;;;;;5070953;28;20723;-74
2023/04/19 12:51:46;;;;;;;8.60;7.27;;;;;;;;;;5069869;28;20205;-73
2023/04/19 12:54:14;;;;;;;8.20;7.40;;;;;;;;;;5082310;28;20208;-73
2023/04/19 12:56:42;;;;;;;12.50;9.73;;;;;;;;;;5089700;28;20205;-74
2023/04/19 12:59:10;;;;;;;11.30;9.40;;;;;;;;;;5087791;28;20268;-75
2023/04/19 13:01:37;;;;;;;12.23;11.02;;;;;;;;;;5046888;28;20445;-74
2023/04/19 13:04:06;;;;;;;12.77;11.47;;;;;;;;;;5070062;28;20237;-75
2023/04/19 13:06:35;;;;;;;12.97;10.67;;;;;;;;;;5052504;28;20762;-74
2023/04/19 13:09:02;;;;;;;11.47;10.07;;;;;;;;;;5069968;28;20263;-74
2023/04/19 13:11:40;;;;;;;11.27;9.90;;;;;;;;;;5035335;28;20252;-74
2023/04/19 13:14:07;;;;;;;15.80;11.60;;;;;;;;;;5070740;28;20312;-74
2023/04/19 13:16:35;;;;;;;13.53;11.07;;;;;;;;;;5082801;28;20712;-74
2023/04/19 13:19:02;;;;;;;11.80;10.40;;;;;;;;;;5090972;28;20256;-74
2023/04/19 13:21:30;;;;;;;15.57;10.93;;;;;;;;;;5090677;28;20216;-74
2023/04/19 13:24:00;;;;;;;13.87;11.10;;;;;;;;;;5089972;28;20609;-75
2023/04/19 13:26:27;;;;;;;15.90;11.27;;;;;;;;;;5084370;28;20283;-75
2023/04/19 13:28:55;;;;;;;13.97;10.93;;;;;;;;;;5090251;28;20213;-74
2023/04/19 13:31:22;;;;;;;14.33;11.20;;;;;;;;;;5090482;28;20204;-75
2023/04/19 13:33:50;;;;;;;13.50;11.87;;;;;;;;;;5084622;28;20198;-74
2023/04/19 13:36:17;;;;;;;17.10;12.00;;;;;;;;;;5070652;28;20300;-74
2023/04/19 13:38:45;;;;;;;13.50;11.40;;;;;;;;;;5069805;28;20308;-74
2023/04/19 13:41:12;;;;;;;15.57;12.43;;;;;;;;;;5069543;28;20205;-73
2023/04/19 13:43:40;;;;;;;16.53;11.63;;;;;;;;;;5070442;28;20544;-74
2023/04/19 13:46:11;;;;;;;15.27;12.20;;;;;;;;;;5070201;28;20462;-74
2023/04/19 13:48:38;;;;;;;16.07;12.20;;;;;;;;;;5069619;28;20586;-74
2023/04/19 13:51:06;;;;;;;16.13;11.33;;;;;;;;;;5070123;28;20237;-73
2023/04/19 13:53:33;;;;;;;15.00;11.70;;;;;;;;;;5070390;28;20618;-74
2023/04/19 13:56:01;;;;;;;15.07;12.20;;;;;;;;;;5052628;28;20678;-74
2023/04/19 13:58:28;;;;;;;17.97;12.60;;;;;;;;;;5070736;28;20233;-75
2023/04/19 14:00:56;;;;;;;14.87;12.40;;;;;;;;;;5069826;28;20222;-75
2023/04/19 14:03:24;;;;;;;16.53;12.00;;;;;;;;;;5074437;28;20197;-76
2023/04/19 14:05:53;;;;;;;17.20;12.93;;;;;;;;;;5090899;28;20649;-74
2023/04/19 14:08:23;;;;;;;17.07;12.70;;;;;;;;;;5091329;28;20225;-74
2023/04/19 14:10:50;;;;;;;17.10;12.63;;;;;;;;;;5055675;28;20202;-75
2023/04/19 14:13:17;;;;;;;15.53;12.30;;;;;;;;;;5073848;28;20205;-75
2023/04/19 14:15:45;;;;;;;14.33;11.33;;;;;;;;;;5073236;28;20217;-73
2023/04/19 14:18:12;;;;;;;12.50;10.00;;;;;;;;;;5053998;28;20305;-74
2023/04/19 14:20:40;;;;;;;12.43;9.60;;;;;;;;;;5063432;28;20233;-74
2023/04/19 14:23:07;;;;;;;12.13;10.03;;;;;;;;;;5073323;28;20206;-74
2023/04/19 14:25:35;;;;;;;15.20;10.83;;;;;;;;;;5033576;28;20260;-75
2023/04/19 14:28:03;;;;;;;12.10;10.57;;;;;;;;;;5050475;28;20209;-75
2023/04/19 14:30:30;;;;;;;14.47;10.60;;;;;;;;;;5069166;28;20213;-74